DHK440 EGNX-KLAX
Flight info
| Callsign | DHK440 |
|---|---|
| Flight time | N/A |
| Altitude | 24000 |
| Route | TNT Q4 WAL/N0490F300 L10 PENIL M144 BAGSO DCT RINUS/N0485F320 DCT MALOT/M084F320 DCT 54N020W 54N030W 54N040W 53N050W DCT RIKAL/N0484F340 DCT MIILS Q907 SIKBO Q905 HOCKE Q824 FNT/N0478F360 J36 BAE J16 MCW J148 ONL J114 SNY J100 SAKES/N0483F380 DCT PROMT Q88 HAKMN ANJLL4 |
| Aircraft | B77L/H-SDE1E2E3FGHIJ2J3J4J5M1RWXY/LB1D1 |
Departure
| Time | 2026-05-05 08:38 |
|---|---|
| Airport | East Midlands Airport (EGNX) |
Arrival
| Time | N/A |
|---|---|
| Airport | Los Angeles International Airport (KLAX) |
| Time | Latitude | Longitude | Altitude | Speed | Heading |
|---|---|---|---|---|---|
| 2026-05-05 08:24 | 52.82751 | -1.34867 | 305 ft | 0 kts | 178° |
| 2026-05-05 08:27 | 52.82752 | -1.34868 | 305 ft | 1 kts | 178° |
| 2026-05-05 08:27 | 52.82777 | -1.34869 | 305 ft | 4 kts | 178° |
| 2026-05-05 08:27 | 52.82803 | -1.34872 | 305 ft | 4 kts | 164° |
| 2026-05-05 08:28 | 52.82823 | -1.34891 | 304 ft | 4 kts | 110° |
| 2026-05-05 08:28 | 52.82825 | -1.34923 | 303 ft | 4 kts | 88° |
| 2026-05-05 08:28 | 52.82824 | -1.34967 | 303 ft | 4 kts | 88° |
| 2026-05-05 08:28 | 52.82824 | -1.34975 | 303 ft | 1 kts | 88° |
| 2026-05-05 08:30 | 52.82825 | -1.34961 | 303 ft | 4 kts | 88° |
| 2026-05-05 08:31 | 52.82827 | -1.34858 | 304 ft | 13 kts | 88° |
| 2026-05-05 08:31 | 52.82830 | -1.34662 | 305 ft | 18 kts | 88° |
| 2026-05-05 08:31 | 52.82835 | -1.34485 | 308 ft | 15 kts | 80° |
| 2026-05-05 08:31 | 52.82863 | -1.34422 | 310 ft | 0 kts | 32° |
| 2026-05-05 08:32 | 52.82886 | -1.34391 | 312 ft | 10 kts | 46° |
| 2026-05-05 08:32 | 52.82906 | -1.34199 | 308 ft | 26 kts | 90° |
| 2026-05-05 08:32 | 52.82912 | -1.33869 | 309 ft | 29 kts | 89° |
| 2026-05-05 08:33 | 52.82918 | -1.33502 | 312 ft | 28 kts | 88° |
| 2026-05-05 08:33 | 52.82924 | -1.33175 | 306 ft | 32 kts | 88° |
| 2026-05-05 08:33 | 52.82930 | -1.32841 | 306 ft | 28 kts | 88° |
| 2026-05-05 08:33 | 52.82937 | -1.32480 | 305 ft | 28 kts | 88° |
| 2026-05-05 08:34 | 52.82942 | -1.32179 | 305 ft | 26 kts | 88° |
| 2026-05-05 08:34 | 52.82948 | -1.31876 | 308 ft | 26 kts | 88° |
| 2026-05-05 08:34 | 52.82953 | -1.31574 | 305 ft | 26 kts | 88° |
| 2026-05-05 08:34 | 52.82959 | -1.31272 | 308 ft | 26 kts | 88° |
| 2026-05-05 08:35 | 52.82964 | -1.30991 | 308 ft | 22 kts | 88° |
| 2026-05-05 08:35 | 52.82978 | -1.30770 | 307 ft | 15 kts | 67° |
| 2026-05-05 08:35 | 52.83064 | -1.30683 | 308 ft | 15 kts | 2° |
| 2026-05-05 08:35 | 52.83128 | -1.30728 | 308 ft | 7 kts | 301° |
| 2026-05-05 08:36 | 52.83136 | -1.30805 | 307 ft | 7 kts | 269° |
| 2026-05-05 08:36 | 52.83136 | -1.30820 | 307 ft | 0 kts | 269° |
| 2026-05-05 08:37 | 52.83136 | -1.30864 | 307 ft | 11 kts | 269° |
| 2026-05-05 08:37 | 52.83130 | -1.31211 | 311 ft | 62 kts | 268° |
| 2026-05-05 08:37 | 52.83109 | -1.32334 | 308 ft | 133 kts | 268° |
| 2026-05-05 08:37 | 52.83074 | -1.34239 | 310 ft | 196 kts | 268° |
| 2026-05-05 08:38 | 52.83010 | -1.36517 | 945 ft | 192 kts | 268° |
| 2026-05-05 08:38 | 52.83028 | -1.38753 | 1590 ft | 201 kts | 286° |
| 2026-05-05 08:38 | 52.83621 | -1.40848 | 2106 ft | 207 kts | 303° |
| 2026-05-05 08:38 | 52.84412 | -1.43023 | 2242 ft | 231 kts | 302° |
| 2026-05-05 08:39 | 52.85235 | -1.45400 | 2669 ft | 247 kts | 301° |
| 2026-05-05 08:39 | 52.86070 | -1.47890 | 3441 ft | 247 kts | 299° |
| 2026-05-05 08:39 | 52.86916 | -1.50443 | 4013 ft | 257 kts | 298° |
| 2026-05-05 08:39 | 52.87779 | -1.53058 | 4773 ft | 257 kts | 300° |
| 2026-05-05 08:40 | 52.88844 | -1.55449 | 5500 ft | 260 kts | 314° |
| 2026-05-05 08:40 | 52.90231 | -1.57376 | 5925 ft | 261 kts | 326° |
| 2026-05-05 08:40 | 52.91819 | -1.58799 | 6011 ft | 260 kts | 335° |
| 2026-05-05 08:40 | 52.93497 | -1.59904 | 5997 ft | 265 kts | 339° |
| 2026-05-05 08:41 | 52.94593 | -1.60548 | 6012 ft | 267 kts | 340° |
| 2026-05-05 08:41 | 52.95188 | -1.60894 | 6012 ft | 267 kts | 339° |
| 2026-05-05 08:41 | 52.96763 | -1.61824 | 6011 ft | 270 kts | 339° |
| 2026-05-05 08:42 | 52.98520 | -1.62870 | 6000 ft | 269 kts | 339° |
| 2026-05-05 08:42 | 53.00268 | -1.63910 | 6003 ft | 265 kts | 339° |
| 2026-05-05 08:42 | 53.01991 | -1.64943 | 6000 ft | 264 kts | 339° |
| 2026-05-05 08:42 | 53.03713 | -1.65987 | 6005 ft | 262 kts | 336° |
| 2026-05-05 08:43 | 53.05208 | -1.67642 | 6024 ft | 261 kts | 305° |
| 2026-05-05 08:43 | 53.05976 | -1.70344 | 6523 ft | 262 kts | 286° |
| 2026-05-05 08:43 | 53.06480 | -1.73276 | 7158 ft | 265 kts | 286° |
| 2026-05-05 08:43 | 53.06502 | -1.73400 | 7183 ft | 265 kts | 286° |
| 2026-05-05 08:44 | 53.07007 | -1.76340 | 7548 ft | 274 kts | 285° |
| 2026-05-05 08:44 | 53.07526 | -1.79403 | 8419 ft | 274 kts | 285° |
| 2026-05-05 08:44 | 53.08038 | -1.82457 | 9188 ft | 274 kts | 285° |
| 2026-05-05 08:44 | 53.08553 | -1.85519 | 9910 ft | 276 kts | 285° |
| 2026-05-05 08:45 | 53.09075 | -1.88630 | 10410 ft | 285 kts | 285° |
| 2026-05-05 08:45 | 53.09629 | -1.91927 | 10570 ft | 307 kts | 285° |
| 2026-05-05 08:45 | 53.10222 | -1.95458 | 10761 ft | 328 kts | 285° |
| 2026-05-05 08:45 | 53.10856 | -1.99237 | 10937 ft | 349 kts | 285° |
| 2026-05-05 08:46 | 53.11520 | -2.03205 | 11412 ft | 361 kts | 285° |
| 2026-05-05 08:46 | 53.12197 | -2.07251 | 12114 ft | 365 kts | 285° |
| 2026-05-05 08:46 | 53.12650 | -2.09962 | 12585 ft | 368 kts | 285° |
| 2026-05-05 08:46 | 53.13337 | -2.14091 | 13313 ft | 372 kts | 285° |
| 2026-05-05 08:47 | 53.14316 | -2.19600 | 14246 ft | 377 kts | 289° |
| 2026-05-05 08:47 | 53.15353 | -2.23637 | 14911 ft | 381 kts | 295° |
| 2026-05-05 08:47 | 53.16555 | -2.27582 | 15566 ft | 384 kts | 295° |
| 2026-05-05 08:47 | 53.17762 | -2.31570 | 16217 ft | 387 kts | 295° |
| 2026-05-05 08:48 | 53.18975 | -2.35605 | 16868 ft | 391 kts | 295° |
| 2026-05-05 08:48 | 53.19798 | -2.38355 | 17303 ft | 393 kts | 295° |
| 2026-05-05 08:48 | 53.21019 | -2.42455 | 17947 ft | 397 kts | 294° |
| 2026-05-05 08:48 | 53.22249 | -2.46597 | 18535 ft | 400 kts | 294° |
| 2026-05-05 08:49 | 53.23470 | -2.50724 | 19022 ft | 405 kts | 295° |
| 2026-05-05 08:49 | 53.24722 | -2.54963 | 19512 ft | 409 kts | 295° |
| 2026-05-05 08:49 | 53.25986 | -2.59253 | 19965 ft | 415 kts | 295° |
| 2026-05-05 08:49 | 53.27266 | -2.63597 | 20467 ft | 418 kts | 295° |
| 2026-05-05 08:50 | 53.28549 | -2.67959 | 21103 ft | 418 kts | 294° |
| 2026-05-05 08:50 | 53.29832 | -2.72341 | 21639 ft | 421 kts | 294° |
| 2026-05-05 08:50 | 53.30996 | -2.76867 | 22037 ft | 427 kts | 289° |
| 2026-05-05 08:50 | 53.32039 | -2.81530 | 22546 ft | 429 kts | 289° |
| 2026-05-05 08:51 | 53.33086 | -2.86223 | 23030 ft | 433 kts | 289° |
| 2026-05-05 08:51 | 53.34149 | -2.90957 | 23549 ft | 435 kts | 289° |
| 2026-05-05 08:51 | 53.35220 | -2.95711 | 24014 ft | 438 kts | 289° |
| 2026-05-05 08:51 | 53.36308 | -3.00530 | 24029 ft | 448 kts | 289° |
| 2026-05-05 08:52 | 53.37417 | -3.05454 | 24056 ft | 457 kts | 289° |
| 2026-05-05 08:52 | 53.38601 | -3.10445 | 24062 ft | 465 kts | 294° |
| 2026-05-05 08:52 | 53.40071 | -3.15296 | 24064 ft | 469 kts | 298° |
| 2026-05-05 08:52 | 53.41841 | -3.19894 | 24055 ft | 469 kts | 304° |
| 2026-05-05 08:53 | 53.43764 | -3.24310 | 24055 ft | 468 kts | 304° |
| 2026-05-05 08:53 | 53.45682 | -3.28721 | 24048 ft | 468 kts | 305° |
| 2026-05-05 08:53 | 53.47593 | -3.33155 | 24053 ft | 470 kts | 304° |
| 2026-05-05 08:53 | 53.49497 | -3.37623 | 24056 ft | 471 kts | 304° |
| 2026-05-05 08:54 | 53.51393 | -3.42108 | 24058 ft | 471 kts | 304° |
| 2026-05-05 08:54 | 53.53286 | -3.46594 | 24052 ft | 470 kts | 304° |
| 2026-05-05 08:54 | 53.55176 | -3.51082 | 24050 ft | 470 kts | 304° |
| 2026-05-05 08:54 | 53.57063 | -3.55569 | 24055 ft | 470 kts | 304° |
| 2026-05-05 08:55 | 53.58936 | -3.60063 | 24052 ft | 468 kts | 302° |
| 2026-05-05 08:55 | 53.60496 | -3.64855 | 24044 ft | 467 kts | 292° |
| 2026-05-05 08:55 | 53.61532 | -3.70024 | 24059 ft | 466 kts | 283° |
| 2026-05-05 08:55 | 53.62112 | -3.75390 | 24058 ft | 466 kts | 274° |
| 2026-05-05 08:56 | 53.62281 | -3.80833 | 24066 ft | 466 kts | 272° |
| 2026-05-05 08:56 | 53.62452 | -3.86299 | 24058 ft | 467 kts | 273° |
| 2026-05-05 08:56 | 53.62671 | -3.91755 | 24058 ft | 468 kts | 274° |
| 2026-05-05 08:56 | 53.62907 | -3.97234 | 24066 ft | 468 kts | 274° |
| 2026-05-05 08:57 | 53.63132 | -4.02714 | 24066 ft | 468 kts | 273° |
| 2026-05-05 08:57 | 53.63343 | -4.08112 | 24062 ft | 468 kts | 273° |
| 2026-05-05 08:57 | 53.63551 | -4.13587 | 24063 ft | 468 kts | 273° |
| 2026-05-05 08:57 | 53.63755 | -4.19057 | 24073 ft | 467 kts | 273° |
| 2026-05-05 08:58 | 53.63959 | -4.24514 | 24071 ft | 466 kts | 273° |
| 2026-05-05 08:58 | 53.64159 | -4.29962 | 24069 ft | 465 kts | 272° |
| 2026-05-05 08:58 | 53.64357 | -4.35403 | 24066 ft | 465 kts | 272° |
| 2026-05-05 08:58 | 53.64549 | -4.40834 | 24072 ft | 464 kts | 272° |
| 2026-05-05 08:59 | 53.64738 | -4.46257 | 24078 ft | 464 kts | 272° |
| 2026-05-05 08:59 | 53.64925 | -4.51678 | 24078 ft | 463 kts | 272° |
| 2026-05-05 08:59 | 53.65111 | -4.57106 | 24078 ft | 463 kts | 272° |
| 2026-05-05 08:59 | 53.65295 | -4.62525 | 24086 ft | 463 kts | 272° |
| 2026-05-05 09:00 | 53.65476 | -4.67950 | 24086 ft | 463 kts | 272° |
| 2026-05-05 09:00 | 53.65656 | -4.73362 | 24083 ft | 462 kts | 272° |
| 2026-05-05 09:00 | 53.65833 | -4.78768 | 24080 ft | 462 kts | 272° |
| 2026-05-05 09:00 | 53.66007 | -4.84164 | 24077 ft | 461 kts | 272° |
| 2026-05-05 09:01 | 53.66182 | -4.89552 | 24076 ft | 460 kts | 272° |
| 2026-05-05 09:01 | 53.66361 | -4.94935 | 24075 ft | 459 kts | 272° |
| 2026-05-05 09:01 | 53.66539 | -5.00309 | 24080 ft | 459 kts | 272° |
| 2026-05-05 09:01 | 53.66715 | -5.05693 | 24074 ft | 459 kts | 272° |
| 2026-05-05 09:02 | 53.66887 | -5.11065 | 24075 ft | 459 kts | 272° |
| 2026-05-05 09:02 | 53.67055 | -5.16443 | 24076 ft | 459 kts | 272° |
| 2026-05-05 09:02 | 53.67214 | -5.21817 | 24086 ft | 459 kts | 272° |
| 2026-05-05 09:02 | 53.67368 | -5.27193 | 24087 ft | 459 kts | 272° |
| 2026-05-05 09:03 | 53.67519 | -5.32574 | 24082 ft | 459 kts | 272° |
| 2026-05-05 09:03 | 53.67670 | -5.37951 | 24080 ft | 459 kts | 272° |
| 2026-05-05 09:03 | 53.67820 | -5.43332 | 24080 ft | 459 kts | 272° |
| 2026-05-05 09:03 | 53.67966 | -5.48702 | 24080 ft | 459 kts | 272° |
| 2026-05-05 09:04 | 53.68010 | -5.54078 | 24083 ft | 458 kts | 269° |
| 2026-05-05 09:04 | 53.67970 | -5.59440 | 24080 ft | 458 kts | 269° |
| 2026-05-05 09:04 | 53.67911 | -5.64812 | 24082 ft | 458 kts | 268° |
| 2026-05-05 09:04 | 53.67848 | -5.70179 | 24082 ft | 458 kts | 268° |
| 2026-05-05 09:05 | 53.67785 | -5.75549 | 24085 ft | 458 kts | 268° |
| 2026-05-05 09:05 | 53.67724 | -5.80922 | 24085 ft | 458 kts | 268° |
| 2026-05-05 09:05 | 53.67665 | -5.86291 | 24082 ft | 458 kts | 268° |
| 2026-05-05 09:05 | 53.67605 | -5.91664 | 24082 ft | 458 kts | 268° |
| 2026-05-05 09:06 | 53.67544 | -5.97040 | 24082 ft | 458 kts | 268° |
| 2026-05-05 09:06 | 53.67481 | -6.02410 | 24081 ft | 458 kts | 268° |
| 2026-05-05 09:06 | 53.67416 | -6.07780 | 24079 ft | 458 kts | 268° |
| 2026-05-05 09:06 | 53.67349 | -6.13091 | 24079 ft | 458 kts | 268° |
| 2026-05-05 09:07 | 53.67279 | -6.18462 | 24079 ft | 458 kts | 268° |
| 2026-05-05 09:07 | 53.67206 | -6.23838 | 24079 ft | 458 kts | 268° |
| 2026-05-05 09:07 | 53.67131 | -6.29209 | 24080 ft | 458 kts | 268° |
| 2026-05-05 09:07 | 53.67053 | -6.34574 | 24078 ft | 458 kts | 268° |
| 2026-05-05 09:08 | 53.66973 | -6.39937 | 24082 ft | 458 kts | 268° |
| 2026-05-05 09:08 | 53.66891 | -6.45302 | 24077 ft | 458 kts | 268° |
| 2026-05-05 09:08 | 53.66806 | -6.50667 | 24077 ft | 457 kts | 268° |
| 2026-05-05 09:08 | 53.66719 | -6.56031 | 24081 ft | 457 kts | 268° |
| 2026-05-05 09:09 | 53.66629 | -6.61385 | 24085 ft | 457 kts | 268° |
| 2026-05-05 09:09 | 53.66537 | -6.66749 | 24084 ft | 457 kts | 268° |
| 2026-05-05 09:09 | 53.66443 | -6.72104 | 24082 ft | 457 kts | 268° |
| 2026-05-05 09:09 | 53.66347 | -6.77464 | 24080 ft | 457 kts | 268° |
| 2026-05-05 09:10 | 53.66247 | -6.82821 | 24081 ft | 457 kts | 268° |
| 2026-05-05 09:10 | 53.66146 | -6.88181 | 24084 ft | 457 kts | 268° |
| 2026-05-05 09:10 | 53.66042 | -6.93542 | 24085 ft | 458 kts | 268° |
| 2026-05-05 09:10 | 53.65936 | -6.98902 | 24085 ft | 458 kts | 268° |
| 2026-05-05 09:11 | 53.65827 | -7.04266 | 24087 ft | 458 kts | 268° |
| 2026-05-05 09:11 | 53.65716 | -7.09637 | 24089 ft | 458 kts | 268° |
| 2026-05-05 09:11 | 53.65602 | -7.15004 | 24087 ft | 458 kts | 268° |
| 2026-05-05 09:11 | 53.65486 | -7.20375 | 24089 ft | 458 kts | 268° |
| 2026-05-05 09:12 | 53.65368 | -7.25743 | 24085 ft | 459 kts | 268° |
| 2026-05-05 09:12 | 53.65247 | -7.31114 | 24082 ft | 459 kts | 268° |
| 2026-05-05 09:12 | 53.65123 | -7.36487 | 24084 ft | 459 kts | 268° |
| 2026-05-05 09:12 | 53.64998 | -7.41854 | 24085 ft | 459 kts | 268° |
| 2026-05-05 09:13 | 53.64871 | -7.47232 | 24084 ft | 459 kts | 268° |
| 2026-05-05 09:13 | 53.64740 | -7.52606 | 24090 ft | 459 kts | 268° |
| 2026-05-05 09:13 | 53.64608 | -7.57977 | 24089 ft | 459 kts | 268° |
| 2026-05-05 09:13 | 53.64473 | -7.63350 | 24090 ft | 459 kts | 268° |
| 2026-05-05 09:14 | 53.64325 | -7.68722 | 24088 ft | 459 kts | 266° |
| 2026-05-05 09:14 | 53.64077 | -7.74083 | 24090 ft | 459 kts | 265° |
| 2026-05-05 09:14 | 53.63760 | -7.79439 | 24097 ft | 459 kts | 264° |
| 2026-05-05 09:14 | 53.63418 | -7.84791 | 24089 ft | 460 kts | 264° |
| 2026-05-05 09:15 | 53.63075 | -7.90143 | 24087 ft | 460 kts | 264° |
| 2026-05-05 09:15 | 53.62738 | -7.95499 | 24093 ft | 460 kts | 265° |
| 2026-05-05 09:15 | 53.62408 | -8.00857 | 24097 ft | 460 kts | 265° |
| 2026-05-05 09:15 | 53.62084 | -8.06210 | 24095 ft | 460 kts | 265° |
| 2026-05-05 09:16 | 53.61766 | -8.11494 | 24097 ft | 460 kts | 265° |
| 2026-05-05 09:16 | 53.61443 | -8.16850 | 24101 ft | 460 kts | 265° |
| 2026-05-05 09:16 | 53.61120 | -8.22204 | 24101 ft | 459 kts | 265° |
| 2026-05-05 09:16 | 53.60794 | -8.27547 | 24102 ft | 459 kts | 265° |
| 2026-05-05 09:17 | 53.60466 | -8.32903 | 24101 ft | 459 kts | 265° |
| 2026-05-05 09:17 | 53.60135 | -8.38249 | 24103 ft | 459 kts | 265° |
| 2026-05-05 09:17 | 53.59802 | -8.43595 | 24100 ft | 459 kts | 265° |
| 2026-05-05 09:17 | 53.59466 | -8.48932 | 24099 ft | 458 kts | 265° |
| 2026-05-05 09:18 | 53.59129 | -8.54260 | 24110 ft | 458 kts | 265° |
| 2026-05-05 09:18 | 53.58789 | -8.59594 | 24109 ft | 458 kts | 265° |
| 2026-05-05 09:18 | 53.58447 | -8.64919 | 24108 ft | 458 kts | 265° |
| 2026-05-05 09:18 | 53.58103 | -8.70234 | 24108 ft | 457 kts | 264° |
| 2026-05-05 09:19 | 53.57756 | -8.75560 | 24115 ft | 457 kts | 264° |
| 2026-05-05 09:19 | 53.57407 | -8.80874 | 24114 ft | 457 kts | 264° |
| 2026-05-05 09:19 | 53.57056 | -8.86193 | 24103 ft | 458 kts | 264° |
| 2026-05-05 09:19 | 53.56702 | -8.91513 | 24109 ft | 458 kts | 264° |
| 2026-05-05 09:20 | 53.56346 | -8.96836 | 24111 ft | 458 kts | 264° |
| 2026-05-05 09:20 | 53.55986 | -9.02166 | 24115 ft | 459 kts | 264° |
| 2026-05-05 09:20 | 53.55625 | -9.07491 | 24115 ft | 459 kts | 264° |
| 2026-05-05 09:20 | 53.55260 | -9.12827 | 24115 ft | 459 kts | 264° |
| 2026-05-05 09:21 | 53.54893 | -9.18167 | 24120 ft | 460 kts | 264° |
| 2026-05-05 09:21 | 53.54523 | -9.23509 | 24121 ft | 460 kts | 264° |
| 2026-05-05 09:21 | 53.54151 | -9.28848 | 24120 ft | 460 kts | 264° |
| 2026-05-05 09:21 | 53.53776 | -9.34186 | 24121 ft | 460 kts | 264° |
| 2026-05-05 09:22 | 53.53399 | -9.39522 | 24118 ft | 460 kts | 264° |
| 2026-05-05 09:22 | 53.53020 | -9.44855 | 24124 ft | 460 kts | 264° |
| 2026-05-05 09:22 | 53.52637 | -9.50198 | 24123 ft | 460 kts | 264° |
| 2026-05-05 09:22 | 53.52254 | -9.55530 | 24129 ft | 460 kts | 264° |
| 2026-05-05 09:23 | 53.51867 | -9.60865 | 24124 ft | 460 kts | 264° |
| 2026-05-05 09:23 | 53.51478 | -9.66198 | 24123 ft | 460 kts | 264° |
| 2026-05-05 09:23 | 53.51088 | -9.71529 | 24129 ft | 460 kts | 264° |
| 2026-05-05 09:23 | 53.50694 | -9.76859 | 24129 ft | 460 kts | 264° |
| 2026-05-05 09:24 | 53.50299 | -9.82188 | 24129 ft | 460 kts | 264° |
| 2026-05-05 09:24 | 53.49900 | -9.87518 | 24129 ft | 460 kts | 264° |
| 2026-05-05 09:24 | 53.49500 | -9.92839 | 24129 ft | 460 kts | 264° |
| 2026-05-05 09:24 | 53.49097 | -9.98165 | 24138 ft | 460 kts | 263° |
| 2026-05-05 09:25 | 53.48697 | -10.03423 | 24138 ft | 460 kts | 263° |
| 2026-05-05 09:25 | 53.48289 | -10.08744 | 24141 ft | 460 kts | 263° |
| 2026-05-05 09:25 | 53.47879 | -10.14065 | 24143 ft | 460 kts | 263° |
| 2026-05-05 09:25 | 53.47466 | -10.19388 | 24138 ft | 460 kts | 263° |
| 2026-05-05 09:26 | 53.47052 | -10.24707 | 24138 ft | 460 kts | 263° |
| 2026-05-05 09:26 | 53.46635 | -10.30026 | 24140 ft | 460 kts | 263° |
| 2026-05-05 09:26 | 53.46215 | -10.35349 | 24143 ft | 460 kts | 263° |
| 2026-05-05 09:26 | 53.45793 | -10.40666 | 24135 ft | 460 kts | 263° |
| 2026-05-05 09:27 | 53.45369 | -10.45988 | 24145 ft | 460 kts | 263° |